createdAt,value
2023-01-28T00:00:34.459Z,0
2023-01-28T00:01:15.137Z,0
2023-01-28T00:01:55.464Z,0
2023-01-28T00:02:36.094Z,0
2023-01-28T00:09:21.231Z,0
2023-01-28T00:10:01.748Z,0
2023-01-28T00:10:42.266Z,0
2023-01-28T00:11:22.795Z,0
2023-01-28T00:12:03.311Z,0
2023-01-28T00:12:43.860Z,0
2023-01-28T00:13:24.418Z,0
2023-01-28T00:14:04.953Z,0
2023-01-28T00:14:45.495Z,0
2023-01-28T00:21:31.543Z,0
2023-01-28T00:22:12.068Z,0
2023-01-28T00:22:52.617Z,0
2023-01-28T00:23:33.155Z,0
2023-01-28T00:24:13.686Z,0
2023-01-28T00:24:54.148Z,0
2023-01-28T00:25:34.673Z,0
2023-01-28T00:26:15.269Z,0
2023-01-28T00:26:55.728Z,0
2023-01-28T00:34:21.569Z,0
2023-01-28T00:35:02.125Z,0
2023-01-28T00:35:42.626Z,0
2023-01-28T00:36:23.840Z,0
2023-01-28T00:37:04.366Z,0
2023-01-28T00:37:44.906Z,0
2023-01-28T00:38:25.573Z,0
2023-01-28T00:39:06.063Z,0
2023-01-28T00:45:11.439Z,0
2023-01-28T00:45:51.943Z,0
2023-01-28T00:46:32.447Z,0
2023-01-28T00:47:12.989Z,0
2023-01-28T00:47:53.552Z,0
2023-01-28T00:48:34.074Z,0
2023-01-28T00:49:14.612Z,0
2023-01-28T00:49:55.131Z,0
2023-01-28T00:50:35.640Z,0
2023-01-28T00:51:16.174Z,0
2023-01-28T00:57:34.307Z,0
2023-01-28T00:58:23.416Z,0
2023-01-28T00:59:07.613Z,0
2023-01-28T01:01:39.471Z,0
2023-01-28T01:02:19.969Z,0
2023-01-28T01:03:00.525Z,0
2023-01-28T01:03:40.993Z,0
2023-01-28T01:07:44.707Z,0
2023-01-28T01:08:25.227Z,0
2023-01-28T01:09:08.289Z,0
2023-01-28T01:11:44.205Z,0
2023-01-28T01:12:24.717Z,0
2023-01-28T01:13:05.254Z,0
2023-01-28T01:13:45.768Z,0
2023-01-28T01:17:20.556Z,0
2023-01-28T01:18:01.120Z,0
2023-01-28T01:18:41.685Z,0
2023-01-28T01:19:22.214Z,0
2023-01-28T01:21:24.771Z,0
2023-01-28T01:22:05.268Z,0
2023-01-28T01:22:45.833Z,0
2023-01-28T01:23:26.369Z,0
2023-01-28T01:24:06.897Z,0
2023-01-28T01:24:47.421Z,0
2023-01-28T01:25:27.938Z,0
2023-01-28T01:26:08.476Z,0
2023-01-28T01:26:48.984Z,0
2023-01-28T01:32:54.661Z,0
2023-01-28T01:33:35.193Z,0
2023-01-28T01:34:15.720Z,0
2023-01-28T01:34:56.208Z,0
2023-01-28T01:35:37.304Z,0
2023-01-28T01:36:17.858Z,0
2023-01-28T01:36:58.392Z,0
2023-01-28T01:37:38.922Z,0
2023-01-28T01:38:19.455Z,0
2023-01-28T01:43:44.687Z,0
2023-01-28T01:44:25.211Z,0
2023-01-28T01:45:05.735Z,0
2023-01-28T01:45:46.247Z,0
2023-01-28T01:46:26.778Z,0
2023-01-28T01:47:07.267Z,0
2023-01-28T01:47:47.792Z,0
2023-01-28T01:48:28.302Z,0
2023-01-28T01:49:08.860Z,0
2023-01-28T01:49:49.358Z,0
2023-01-28T01:56:35.301Z,0
2023-01-28T01:57:15.812Z,0
2023-01-28T01:57:56.312Z,0
2023-01-28T01:58:36.844Z,0
2023-01-28T01:59:17.354Z,0
2023-01-28T01:59:57.868Z,0
2023-01-28T02:00:38.374Z,0
2023-01-28T02:01:18.909Z,0
2023-01-28T02:02:00.129Z,0
2023-01-28T02:08:05.813Z,0
2023-01-28T02:08:46.349Z,0
2023-01-28T02:09:26.865Z,0
2023-01-28T02:10:07.419Z,0
2023-01-28T02:10:47.963Z,0
2023-01-28T02:11:28.495Z,0
2023-01-28T02:12:08.997Z,0
2023-01-28T02:12:49.513Z,0
2023-01-28T02:21:07.552Z,0
2023-01-28T02:21:48.096Z,0
2023-01-28T02:22:28.683Z,0
2023-01-28T02:23:09.296Z,0
2023-01-28T02:25:22.353Z,0
2023-01-28T02:26:02.883Z,0
2023-01-28T02:26:43.399Z,0
2023-01-28T02:27:23.894Z,0
2023-01-28T02:32:19.810Z,0
2023-01-28T02:33:00.311Z,0
2023-01-28T02:33:40.845Z,0
2023-01-28T02:34:21.362Z,0
2023-01-28T02:37:16.483Z,0
2023-01-28T02:37:57.004Z,0
2023-01-28T02:38:38.540Z,0
2023-01-28T02:39:19.845Z,0
2023-01-28T02:41:32.879Z,0
2023-01-28T02:42:13.383Z,0
2023-01-28T02:42:53.917Z,0
2023-01-28T02:43:34.429Z,0
2023-01-28T02:47:37.583Z,0
2023-01-28T02:48:18.114Z,0
2023-01-28T02:48:58.623Z,0
2023-01-28T02:49:39.118Z,0
2023-01-28T02:50:19.650Z,0
2023-01-28T02:51:00.172Z,0
2023-01-28T02:51:40.704Z,0
2023-01-28T02:52:21.263Z,0
2023-01-28T02:55:03.449Z,0
2023-01-28T02:55:43.965Z,0
2023-01-28T02:56:24.496Z,0
2023-01-28T02:59:02.931Z,0
2023-01-28T02:59:43.556Z,0
2023-01-28T03:00:24.095Z,0
2023-01-28T03:01:04.592Z,0
2023-01-28T03:05:07.697Z,0
2023-01-28T03:05:48.204Z,0
2023-01-28T03:06:28.726Z,0
2023-01-28T03:07:09.273Z,0
2023-01-28T03:07:49.826Z,0
2023-01-28T03:08:30.352Z,0
2023-01-28T03:09:10.881Z,0
2023-01-28T03:09:51.396Z,0
2023-01-28T03:10:31.920Z,0
2023-01-28T03:11:12.452Z,0
2023-01-28T03:17:57.650Z,0
2023-01-28T03:18:38.184Z,0
2023-01-28T03:19:18.706Z,0
2023-01-28T03:19:59.213Z,0
2023-01-28T03:20:39.758Z,0
2023-01-28T03:21:20.273Z,0
2023-01-28T03:22:00.791Z,0
2023-01-28T03:22:41.322Z,0
2023-01-28T03:23:21.864Z,0
2023-01-28T03:24:02.432Z,0
2023-01-28T03:30:47.644Z,0
2023-01-28T03:33:26.093Z,0
2023-01-28T03:34:06.594Z,0
2023-01-28T03:34:47.115Z,0
2023-01-28T03:35:27.657Z,0
2023-01-28T03:38:51.153Z,0
2023-01-28T03:39:31.688Z,0
2023-01-28T03:40:12.205Z,0
2023-01-28T03:42:50.643Z,0
2023-01-28T03:43:31.149Z,0
2023-01-28T03:44:11.681Z,0
2023-01-28T03:44:52.187Z,0
2023-01-28T03:49:47.880Z,0
2023-01-28T03:50:28.618Z,0
2023-01-28T03:51:09.135Z,0
2023-01-28T03:51:49.653Z,0
2023-01-28T03:54:02.729Z,0
2023-01-28T03:54:43.248Z,0
2023-01-28T03:55:23.828Z,0
2023-01-28T03:56:04.315Z,0
2023-01-28T04:00:07.450Z,0
2023-01-28T04:00:48.017Z,0
2023-01-28T04:01:28.527Z,0
2023-01-28T04:02:09.031Z,0
2023-01-28T04:02:49.606Z,0
2023-01-28T04:03:30.056Z,0
2023-01-28T04:04:10.612Z,0
2023-01-28T04:04:51.155Z,0
2023-01-28T04:07:29.609Z,0
2023-01-28T04:08:10.113Z,0
2023-01-28T04:08:50.662Z,0
2023-01-28T04:09:31.210Z,0
2023-01-28T04:13:45.775Z,0
2023-01-28T04:14:26.294Z,0
2023-01-28T04:15:06.836Z,0
2023-01-28T04:15:47.419Z,0
2023-01-28T04:18:40.898Z,0
2023-01-28T04:19:22.353Z,0
2023-01-28T04:20:02.876Z,0
2023-01-28T04:20:43.398Z,0
2023-01-28T04:25:13.717Z,0
2023-01-28T04:25:53.836Z,0
2023-01-28T04:26:36.148Z,0
2023-01-28T04:27:17.122Z,0
2023-01-28T04:29:36.757Z,0
2023-01-28T04:30:17.271Z,0
2023-01-28T04:30:57.771Z,0
2023-01-28T04:31:39.322Z,0
2023-01-28T04:34:21.373Z,0
2023-01-28T04:35:01.864Z,0
2023-01-28T04:35:42.372Z,0
2023-01-28T04:36:22.897Z,0
2023-01-28T04:37:03.422Z,0
2023-01-28T04:37:43.943Z,0
2023-01-28T04:38:24.437Z,0
2023-01-28T04:39:04.950Z,0
2023-01-28T04:39:45.468Z,0
2023-01-28T04:40:26.009Z,0
2023-01-28T04:43:20.296Z,0
2023-01-28T04:44:00.775Z,0
2023-01-28T04:44:41.301Z,0
2023-01-28T04:45:21.822Z,0
2023-01-28T04:47:36.379Z,0
2023-01-28T04:48:16.911Z,0
2023-01-28T04:48:57.457Z,0
2023-01-28T04:49:37.957Z,0
2023-01-28T04:53:41.057Z,0
2023-01-28T04:54:21.589Z,0
2023-01-28T04:55:02.105Z,0
2023-01-28T04:55:42.631Z,0
2023-01-28T04:56:23.870Z,0
2023-01-28T04:57:04.377Z,0
2023-01-28T04:57:44.936Z,0
2023-01-28T04:58:25.423Z,0
2023-01-28T04:59:05.957Z,0
2023-01-28T05:05:11.191Z,0
2023-01-28T05:05:51.731Z,0
2023-01-28T05:06:32.245Z,0
2023-01-28T05:07:12.750Z,0
2023-01-28T05:07:53.286Z,0
2023-01-28T05:08:33.829Z,0
2023-01-28T05:09:14.376Z,0
2023-01-28T05:09:55.766Z,0
2023-01-28T05:16:01.424Z,0
2023-01-28T05:16:41.966Z,0
2023-01-28T05:17:22.524Z,0
2023-01-28T05:18:02.994Z,0
2023-01-28T05:18:44.801Z,0
2023-01-28T05:19:24.148Z,0
2023-01-28T05:20:04.596Z,0
2023-01-28T05:20:45.073Z,0
2023-01-28T05:21:25.586Z,0
2023-01-28T05:24:59.877Z,0
2023-01-28T05:25:40.372Z,0
2023-01-28T05:26:20.935Z,0
2023-01-28T05:27:01.416Z,0
2023-01-28T05:31:58.049Z,0
2023-01-28T05:32:38.653Z,0
2023-01-28T05:33:19.116Z,0
2023-01-28T05:33:59.614Z,0
2023-01-28T05:38:02.760Z,0
2023-01-28T05:38:43.300Z,0
2023-01-28T05:39:23.826Z,0
2023-01-28T05:40:05.310Z,0
2023-01-28T05:40:45.825Z,0
2023-01-28T05:41:26.363Z,0
2023-01-28T05:42:06.876Z,0
2023-01-28T05:42:47.372Z,0
2023-01-28T05:50:13.440Z,0
2023-01-28T05:50:53.610Z,0
2023-01-28T05:51:34.134Z,0
2023-01-28T05:52:14.677Z,0
2023-01-28T05:52:55.191Z,0
2023-01-28T05:53:35.685Z,0
2023-01-28T05:54:16.228Z,0
2023-01-28T05:54:56.739Z,0
2023-01-28T05:55:37.250Z,0
2023-01-28T06:01:42.858Z,0
2023-01-28T06:02:23.442Z,0
2023-01-28T06:03:03.897Z,0
2023-01-28T06:03:44.413Z,0
2023-01-28T06:04:24.945Z,0
2023-01-28T06:05:05.484Z,0
2023-01-28T06:07:43.930Z,0
2023-01-28T06:08:24.460Z,0
2023-01-28T06:09:04.959Z,0
2023-01-28T06:09:45.469Z,0
2023-01-28T06:13:48.535Z,0
2023-01-28T06:14:29.095Z,0
2023-01-28T06:15:09.609Z,0
2023-01-28T06:15:50.304Z,0
2023-01-28T06:16:30.724Z,0
2023-01-28T06:17:11.267Z,0
2023-01-28T06:17:51.782Z,0
2023-01-28T06:18:32.292Z,0
2023-01-28T06:19:12.821Z,0
2023-01-28T06:21:51.294Z,0
2023-01-28T06:22:31.791Z,0
2023-01-28T06:23:12.344Z,0
2023-01-28T06:23:52.906Z,0
2023-01-28T06:27:56.051Z,0
2023-01-28T06:30:34.514Z,0
2023-01-28T06:31:14.998Z,0
2023-01-28T06:31:55.531Z,0
2023-01-28T06:32:36.727Z,0
2023-01-28T06:35:59.320Z,0
2023-01-28T06:36:39.863Z,0
2023-01-28T06:39:19.815Z,0
2023-01-28T06:40:00.900Z,0
2023-01-28T06:40:41.418Z,0
2023-01-28T06:41:22.602Z,0
2023-01-28T06:45:18.862Z,0
2023-01-28T06:45:59.348Z,0
2023-01-28T06:46:39.863Z,0
2023-01-28T06:47:20.354Z,0
2023-01-28T06:50:42.949Z,0
2023-01-28T06:51:23.438Z,0
2023-01-28T06:52:04.744Z,0
2023-01-28T06:52:45.252Z,0
2023-01-28T06:53:25.746Z,0
2023-01-28T06:54:06.265Z,0
2023-01-28T06:56:45.598Z,0
2023-01-28T06:57:26.125Z,0
2023-01-28T06:58:06.630Z,0
2023-01-28T06:58:47.118Z,0
2023-01-28T07:04:45.511Z,0
2023-01-28T07:05:26.040Z,0
2023-01-28T07:06:06.551Z,0
2023-01-28T07:06:47.056Z,0
2023-01-28T07:10:10.528Z,0
2023-01-28T07:10:51.023Z,0
2023-01-28T07:11:31.545Z,0
2023-01-28T07:12:12.066Z,0
2023-01-28T07:12:52.602Z,0
2023-01-28T07:13:33.092Z,0
2023-01-28T07:14:13.607Z,0
2023-01-28T07:14:54.134Z,0
2023-01-28T07:15:34.646Z,0
2023-01-28T07:22:20.529Z,0
2023-01-28T07:23:01.035Z,0
2023-01-28T07:23:41.541Z,0
2023-01-28T07:24:22.079Z,0
2023-01-28T07:25:02.599Z,0
2023-01-28T07:25:43.110Z,0
2023-01-28T07:26:24.289Z,5
2023-01-28T07:31:02.349Z,0
2023-01-28T07:31:42.926Z,5
2023-01-28T07:32:23.304Z,5
2023-01-28T07:33:03.822Z,5
2023-01-28T07:37:00.684Z,5
2023-01-28T07:37:41.209Z,5
2023-01-28T07:38:21.733Z,5
2023-01-28T07:39:02.247Z,5
2023-01-28T07:42:25.334Z,5
2023-01-28T07:43:05.866Z,5
2023-01-28T07:43:46.369Z,5
2023-01-28T07:44:26.888Z,5
2023-01-28T07:45:07.464Z,5
2023-01-28T07:45:48.668Z,5
2023-01-28T07:46:28.446Z,5
2023-01-28T07:47:08.997Z,10
2023-01-28T07:47:49.470Z,10
2023-01-28T07:48:29.980Z,10
2023-01-28T07:51:23.528Z,10
2023-01-28T07:52:04.814Z,10
2023-01-28T07:52:45.363Z,10
2023-01-28T07:53:26.454Z,10
2023-01-28T07:56:59.540Z,10
2023-01-28T07:57:40.050Z,10
2023-01-28T07:58:20.577Z,10
2023-01-28T07:59:01.114Z,15
2023-01-28T08:01:30.111Z,10
2023-01-28T08:02:10.695Z,10
2023-01-28T08:02:51.214Z,10
2023-01-28T08:03:31.745Z,15
2023-01-28T08:06:25.387Z,15
2023-01-28T08:07:07.933Z,10
2023-01-28T08:07:46.424Z,15
2023-01-28T08:08:26.929Z,15
2023-01-28T08:11:50.398Z,15
2023-01-28T08:12:30.925Z,15
2023-01-28T08:14:43.947Z,20
2023-01-28T08:15:25.248Z,15
2023-01-28T08:16:06.589Z,15
2023-01-28T08:16:47.121Z,15
2023-01-28T08:20:22.330Z,15
2023-01-28T08:21:02.817Z,20
2023-01-28T08:21:43.360Z,20
2023-01-28T08:22:23.969Z,20
2023-01-28T08:25:41.171Z,15
2023-01-28T08:26:21.695Z,15
2023-01-28T08:27:02.283Z,15
2023-01-28T08:27:42.772Z,15
2023-01-28T08:30:16.508Z,20
2023-01-28T08:30:56.820Z,20
2023-01-28T08:31:38.847Z,25
2023-01-28T08:32:19.424Z,30
2023-01-28T08:34:32.225Z,30
2023-01-28T08:35:13.412Z,30
2023-01-28T08:35:53.931Z,30
2023-01-28T08:36:34.423Z,30
2023-01-28T08:38:49.276Z,35
2023-01-28T08:39:34.081Z,40
2023-01-28T08:40:55.297Z,50
2023-01-28T08:43:08.389Z,55
2023-01-28T08:43:48.891Z,55
2023-01-28T08:44:29.438Z,50
2023-01-28T08:45:09.960Z,50
2023-01-28T08:48:03.524Z,65
2023-01-28T08:48:44.049Z,65
2023-01-28T08:49:24.600Z,65
2023-01-28T08:50:05.129Z,65
2023-01-28T08:54:08.292Z,60
2023-01-28T08:54:48.805Z,65
2023-01-28T08:55:29.329Z,65
2023-01-28T08:56:09.849Z,65
2023-01-28T08:56:50.326Z,65
2023-01-28T09:00:34.474Z,50
2023-01-28T09:01:15.054Z,45
2023-01-28T09:01:55.598Z,35
2023-01-28T09:02:36.075Z,30
2023-01-28T09:05:18.276Z,30
2023-01-28T09:05:58.833Z,30
2023-01-28T09:06:39.398Z,35
2023-01-28T09:07:19.866Z,35
2023-01-28T09:08:00.370Z,40
2023-01-28T09:08:40.911Z,40
2023-01-28T09:09:21.437Z,40
2023-01-28T09:10:02.008Z,40
2023-01-28T09:10:42.541Z,40
2023-01-28T09:13:21.545Z,45
2023-01-28T09:14:02.058Z,50
2023-01-28T09:14:43.133Z,50
2023-01-28T09:15:23.656Z,50
2023-01-28T09:18:57.743Z,60
2023-01-28T09:19:38.268Z,65
2023-01-28T09:20:18.759Z,65
2023-01-28T09:20:59.306Z,65
2023-01-28T09:23:53.806Z,75
2023-01-28T09:24:36.739Z,80
2023-01-28T09:25:17.119Z,85
2023-01-28T09:27:56.155Z,80
2023-01-28T09:28:37.329Z,80
2023-01-28T09:29:18.099Z,75
2023-01-28T09:29:59.336Z,75
2023-01-28T09:32:00.906Z,80
2023-01-28T09:32:41.404Z,85
2023-01-28T09:33:21.935Z,95
2023-01-28T09:34:02.491Z,95
2023-01-28T09:34:42.993Z,95
2023-01-28T09:35:23.504Z,90
2023-01-28T09:36:04.048Z,85
2023-01-28T09:36:44.569Z,80
2023-01-28T09:37:25.094Z,80
2023-01-28T09:38:05.659Z,85
2023-01-28T09:42:50.915Z,70
2023-01-28T09:43:31.441Z,70
2023-01-28T09:44:11.928Z,70
2023-01-28T09:44:52.469Z,70
2023-01-28T09:45:32.997Z,70
2023-01-28T09:46:13.528Z,75
2023-01-28T09:46:54.194Z,80
2023-01-28T09:47:34.583Z,75
2023-01-28T09:48:15.113Z,75
2023-01-28T09:48:55.659Z,70
2023-01-28T09:55:41.825Z,80
2023-01-28T09:56:22.833Z,80
2023-01-28T09:59:02.200Z,80
2023-01-28T09:59:43.504Z,80
2023-01-28T10:00:24.018Z,80
2023-01-28T10:01:05.572Z,80
2023-01-28T10:01:46.022Z,80
2023-01-28T10:02:26.543Z,80
2023-01-28T10:03:07.035Z,80
2023-01-28T10:03:47.622Z,75
2023-01-28T10:04:29.580Z,75
2023-01-28T10:05:10.083Z,80
2023-01-28T10:05:50.610Z,80
2023-01-28T10:09:55.930Z,75
2023-01-28T10:10:36.469Z,75
2023-01-28T10:11:16.996Z,75
2023-01-28T10:11:57.550Z,70
2023-01-28T10:12:40.006Z,60
2023-01-28T10:13:21.949Z,55
2023-01-28T10:17:35.769Z,80
2023-01-28T10:18:18.155Z,80
2023-01-28T10:18:56.967Z,75
2023-01-28T10:19:37.459Z,70
2023-01-28T10:24:15.073Z,60
2023-01-28T10:24:55.672Z,55
2023-01-28T10:25:36.180Z,50
2023-01-28T10:26:16.710Z,55
2023-01-28T10:29:39.864Z,30
2023-01-28T10:30:20.410Z,40
2023-01-28T10:32:58.875Z,45
2023-01-28T10:33:39.383Z,40
2023-01-28T10:34:21.469Z,35
2023-01-28T10:35:02.018Z,40
2023-01-28T10:37:03.557Z,35
2023-01-28T10:39:42.007Z,60
2023-01-28T10:40:22.529Z,60
2023-01-28T10:41:03.037Z,60
2023-01-28T10:41:56.482Z,65
2023-01-28T10:45:46.924Z,60
2023-01-28T10:46:27.422Z,70
2023-01-28T10:47:07.930Z,75
2023-01-28T10:47:48.461Z,80
2023-01-28T10:48:28.951Z,80
2023-01-28T10:53:57.420Z,80
2023-01-28T10:54:37.983Z,75
2023-01-28T10:55:19.029Z,80
2023-01-28T10:55:59.547Z,85
2023-01-28T10:56:40.128Z,80
2023-01-28T10:57:20.606Z,75
2023-01-28T10:58:01.065Z,75
2023-01-28T10:58:41.645Z,75
2023-01-28T11:04:07.690Z,80
2023-01-28T11:04:48.227Z,75
2023-01-28T11:05:28.766Z,75
2023-01-28T11:06:09.291Z,75
2023-01-28T11:06:49.880Z,75
2023-01-28T11:07:30.429Z,70
2023-01-28T11:12:27.965Z,70
2023-01-28T11:13:09.422Z,70
2023-01-28T11:13:50.055Z,70
2023-01-28T11:14:30.623Z,60
2023-01-28T11:16:49.924Z,70
2023-01-28T11:17:31.366Z,75
2023-01-28T11:18:13.415Z,70
2023-01-28T11:20:52.984Z,75
2023-01-28T11:21:33.571Z,80
2023-01-28T11:22:14.077Z,75
2023-01-28T11:22:54.631Z,75
2023-01-28T11:26:57.833Z,75
2023-01-28T11:27:38.366Z,75
2023-01-28T11:28:18.862Z,65
2023-01-28T11:28:59.373Z,55
2023-01-28T11:29:39.914Z,55
2023-01-28T11:30:20.428Z,65
2023-01-28T11:31:00.997Z,65
2023-01-28T11:31:41.556Z,70
2023-01-28T11:34:19.946Z,65
2023-01-28T11:35:00.531Z,70
2023-01-28T11:35:41.048Z,75
2023-01-28T11:36:21.566Z,80
2023-01-28T11:39:44.794Z,80
2023-01-28T11:40:25.540Z,85
2023-01-28T11:41:05.821Z,95
2023-01-28T11:41:46.370Z,105
2023-01-28T11:42:26.895Z,105
2023-01-28T11:43:07.442Z,105
2023-01-28T11:43:47.949Z,105
2023-01-28T11:44:28.458Z,105
2023-01-28T11:47:06.922Z,105
2023-01-28T11:47:47.424Z,105
2023-01-28T11:48:27.987Z,105
2023-01-28T11:49:08.507Z,95
2023-01-28T11:53:11.562Z,70
2023-01-28T11:53:52.070Z,75
2023-01-28T11:54:32.627Z,85
2023-01-28T11:55:13.173Z,95
2023-01-28T11:57:51.644Z,100
2023-01-28T11:58:32.207Z,100
2023-01-28T11:59:12.715Z,90
2023-01-28T11:59:53.233Z,90
2023-01-28T12:03:56.356Z,90
2023-01-28T12:04:36.931Z,90
2023-01-28T12:05:17.409Z,95
2023-01-28T12:05:57.915Z,100
2023-01-28T12:08:36.414Z,100
2023-01-28T12:09:16.917Z,90
2023-01-28T12:09:57.447Z,90
2023-01-28T12:10:37.975Z,95
2023-01-28T12:14:41.196Z,80
2023-01-28T12:17:19.677Z,80
2023-01-28T12:18:00.222Z,85
2023-01-28T12:18:40.713Z,85
2023-01-28T12:19:21.950Z,80
2023-01-28T12:22:44.582Z,85
2023-01-28T12:23:25.103Z,85
2023-01-28T12:24:05.671Z,90
2023-01-28T12:24:46.127Z,95
2023-01-28T12:25:26.643Z,90
2023-01-28T12:26:07.167Z,80
2023-01-28T12:26:47.682Z,75
2023-01-28T12:27:28.200Z,65
2023-01-28T12:28:08.708Z,60
2023-01-28T12:28:49.243Z,55
2023-01-28T12:37:07.791Z,85
2023-01-28T12:37:48.287Z,80
2023-01-28T12:38:28.821Z,75
2023-01-28T12:39:09.368Z,70
2023-01-28T12:43:12.403Z,65
2023-01-28T12:43:52.921Z,70
2023-01-28T12:44:33.459Z,85
2023-01-28T12:45:13.975Z,95
2023-01-28T12:45:55.197Z,105
2023-01-28T12:46:35.650Z,115
2023-01-28T12:47:16.185Z,120
2023-01-28T12:47:56.703Z,115
2023-01-28T12:48:37.205Z,120
2023-01-28T12:55:22.505Z,160
2023-01-28T12:56:03.048Z,160
2023-01-28T12:56:43.538Z,160
2023-01-28T12:59:22.944Z,130
2023-01-28T13:00:03.532Z,125
2023-01-28T13:00:44.042Z,135
2023-01-28T13:01:24.589Z,135
2023-01-28T13:05:27.790Z,95
2023-01-28T13:06:08.300Z,100
2023-01-28T13:06:48.846Z,105
2023-01-28T13:07:29.362Z,115
2023-01-28T13:08:09.889Z,125
2023-01-28T13:08:50.520Z,140
2023-01-28T13:09:31.312Z,145
2023-01-28T13:10:11.843Z,155
2023-01-28T13:10:52.367Z,150
2023-01-28T13:16:37.231Z,100
2023-01-28T13:17:09.589Z,115
2023-01-28T13:17:50.053Z,135
2023-01-28T13:18:30.603Z,145
2023-01-28T13:22:33.876Z,135
2023-01-28T13:23:14.418Z,125
2023-01-28T13:23:54.972Z,125
2023-01-28T13:24:35.507Z,135
2023-01-28T13:25:16.494Z,135
2023-01-28T13:25:56.749Z,125
2023-01-28T13:26:37.268Z,115
2023-01-28T13:27:17.824Z,105
2023-01-28T13:27:58.360Z,105
2023-01-28T13:33:58.054Z,75
2023-01-28T13:34:38.627Z,70
2023-01-28T13:35:19.161Z,65
2023-01-28T13:35:59.682Z,60
2023-01-28T13:38:41.781Z,50
2023-01-28T13:39:22.401Z,50
2023-01-28T13:40:02.939Z,50
2023-01-28T13:40:43.456Z,45
2023-01-28T13:41:23.968Z,45
2023-01-28T13:42:04.492Z,50
2023-01-28T13:42:45.033Z,50
2023-01-28T13:43:25.534Z,50
2023-01-28T13:44:06.049Z,50
2023-01-28T13:44:46.598Z,50
2023-01-28T13:50:13.876Z,45
2023-01-28T13:50:52.771Z,45
2023-01-28T13:51:33.293Z,40
2023-01-28T13:52:13.820Z,40
2023-01-28T13:52:54.335Z,35
2023-01-28T13:53:34.931Z,35
2023-01-28T13:54:15.447Z,35
2023-01-28T13:54:55.977Z,40
2023-01-28T13:57:34.413Z,50
2023-01-28T13:58:14.943Z,55
2023-01-28T13:58:56.439Z,60
2023-01-28T13:59:36.960Z,65
2023-01-28T14:02:19.113Z,60
2023-01-28T14:02:59.636Z,60
2023-01-28T14:03:40.164Z,65
2023-01-28T14:04:20.694Z,70
2023-01-28T14:05:01.189Z,75
2023-01-28T14:07:39.885Z,70
2023-01-28T14:08:20.436Z,70
2023-01-28T14:09:01.895Z,75
2023-01-28T14:09:42.394Z,70
2023-01-28T14:12:20.825Z,70
2023-01-28T14:13:01.345Z,75
2023-01-28T14:13:41.826Z,70
2023-01-28T14:14:22.331Z,70
2023-01-28T14:19:05.793Z,70
2023-01-28T14:19:46.281Z,70
2023-01-28T14:20:27.547Z,70
2023-01-28T14:21:07.327Z,65
2023-01-28T14:21:47.848Z,65
2023-01-28T14:22:28.369Z,70
2023-01-28T14:23:08.910Z,70
2023-01-28T14:23:49.431Z,70
2023-01-28T14:24:30.030Z,70
2023-01-28T14:25:10.465Z,70
2023-01-28T14:28:04.056Z,65
2023-01-28T14:28:44.553Z,65
2023-01-28T14:29:25.092Z,65
2023-01-28T14:30:05.673Z,65
2023-01-28T14:34:08.810Z,60
2023-01-28T14:34:49.337Z,55
2023-01-28T14:35:29.865Z,55
2023-01-28T14:36:10.397Z,55
2023-01-28T14:36:50.890Z,55
2023-01-28T14:37:31.422Z,55
2023-01-28T14:38:11.969Z,55
2023-01-28T14:38:52.485Z,55
2023-01-28T14:39:32.990Z,55
2023-01-28T14:40:14.006Z,55
2023-01-28T14:45:50.177Z,35
2023-01-28T14:46:30.861Z,30
2023-01-28T14:47:11.378Z,30
2023-01-28T14:47:52.029Z,30
2023-01-28T14:50:05.014Z,25
2023-01-28T14:50:45.513Z,25
2023-01-28T14:51:26.065Z,25
2023-01-28T14:52:07.440Z,25
2023-01-28T14:54:22.000Z,20
2023-01-28T14:55:02.543Z,20
2023-01-28T14:55:43.091Z,20
2023-01-28T14:56:24.251Z,15
2023-01-28T15:02:10.645Z,10
2023-01-28T15:02:51.241Z,15
2023-01-28T15:03:31.766Z,15
2023-01-28T15:04:12.153Z,15
2023-01-28T15:08:55.747Z,10
2023-01-28T15:09:36.285Z,10
2023-01-28T15:10:17.085Z,10
2023-01-28T15:10:58.057Z,10
2023-01-28T15:11:38.575Z,10
2023-01-28T15:12:19.121Z,10
2023-01-28T15:12:59.661Z,10
2023-01-28T15:13:40.197Z,10
2023-01-28T15:20:37.699Z,5
2023-01-28T15:21:19.254Z,5
2023-01-28T15:21:59.794Z,5
2023-01-28T15:22:40.314Z,5
2023-01-28T15:26:14.392Z,5
2023-01-28T15:26:54.940Z,5
2023-01-28T15:27:35.481Z,5
2023-01-28T15:28:15.998Z,5
2023-01-28T15:30:55.009Z,5
2023-01-28T15:31:35.509Z,5
2023-01-28T15:32:16.532Z,5
2023-01-28T15:32:57.155Z,5
2023-01-28T15:37:52.451Z,5
2023-01-28T15:38:32.954Z,5
2023-01-28T15:39:13.468Z,5
2023-01-28T15:39:54.068Z,5
2023-01-28T15:42:14.598Z,5
2023-01-28T15:42:58.934Z,5
2023-01-28T15:43:40.110Z,5
2023-01-28T15:44:24.254Z,5
2023-01-28T15:45:07.369Z,5
2023-01-28T15:45:51.272Z,5
2023-01-28T15:46:31.789Z,5
2023-01-28T15:49:42.604Z,5
2023-01-28T15:50:23.168Z,5
2023-01-28T15:51:03.731Z,5
2023-01-28T15:51:45.058Z,5
2023-01-28T15:53:07.809Z,5
2023-01-28T15:53:48.815Z,5
2023-01-28T15:54:29.305Z,5
2023-01-28T15:55:09.821Z,5
2023-01-28T15:55:50.325Z,5
2023-01-28T15:56:30.843Z,5
2023-01-28T15:57:11.375Z,5
2023-01-28T15:57:51.923Z,5
2023-01-28T16:01:59.064Z,0
2023-01-28T16:02:40.308Z,0
2023-01-28T16:03:20.925Z,0
2023-01-28T16:04:02.192Z,0
2023-01-28T16:08:19.944Z,0
2023-01-28T16:09:02.206Z,0
2023-01-28T16:09:42.749Z,0
2023-01-28T16:10:23.312Z,0
2023-01-28T16:11:05.271Z,0
2023-01-28T16:13:33.670Z,0
2023-01-28T16:14:14.235Z,0
2023-01-28T16:14:54.827Z,0
2023-01-28T16:15:35.411Z,0
2023-01-28T16:19:38.687Z,0
2023-01-28T16:20:19.166Z,0
2023-01-28T16:21:00.530Z,0
2023-01-28T16:21:41.030Z,0
2023-01-28T16:25:35.069Z,0
2023-01-28T16:26:15.591Z,0
2023-01-28T16:26:56.142Z,0
2023-01-28T16:27:36.703Z,0
2023-01-28T16:31:39.859Z,0
2023-01-28T16:32:20.349Z,0
2023-01-28T16:33:00.870Z,0
2023-01-28T16:33:41.390Z,0
2023-01-28T16:34:21.921Z,0
2023-01-28T16:37:00.615Z,0
2023-01-28T16:37:42.292Z,0
2023-01-28T16:38:21.715Z,0
2023-01-28T16:39:02.308Z,0
2023-01-28T16:41:05.589Z,0
2023-01-28T16:44:15.781Z,0
2023-01-28T16:44:56.301Z,0
2023-01-28T16:45:36.806Z,0
2023-01-28T16:48:05.561Z,0
2023-01-28T16:48:46.080Z,0
2023-01-28T16:49:26.638Z,0
2023-01-28T16:50:08.194Z,0
2023-01-28T16:53:21.166Z,0
2023-01-28T16:54:07.250Z,0
2023-01-28T16:54:50.603Z,0
2023-01-28T16:55:33.665Z,0
2023-01-28T16:56:30.275Z,0
2023-01-28T16:58:46.228Z,0
2023-01-28T16:59:24.687Z,0
2023-01-28T17:00:05.238Z,0
2023-01-28T17:00:45.826Z,0
2023-01-28T17:03:39.647Z,0
2023-01-28T17:04:20.267Z,0
2023-01-28T17:05:00.920Z,0
2023-01-28T17:05:41.481Z,0
2023-01-28T17:07:54.497Z,0
2023-01-28T17:08:35.033Z,0
2023-01-28T17:09:15.531Z,0
2023-01-28T17:09:56.053Z,0
2023-01-28T17:13:59.236Z,0
2023-01-28T17:14:39.752Z,0
2023-01-28T17:15:20.305Z,0
2023-01-28T17:16:00.829Z,0
2023-01-28T17:16:41.472Z,0
2023-01-28T17:17:21.895Z,0
2023-01-28T17:18:02.450Z,0
2023-01-28T17:18:42.965Z,0
2023-01-28T17:19:23.768Z,0
2023-01-28T17:27:41.581Z,0
2023-01-28T17:28:22.967Z,0
2023-01-28T17:29:03.517Z,0
2023-01-28T17:29:44.028Z,0
2023-01-28T17:32:38.104Z,0
2023-01-28T17:33:18.591Z,0
2023-01-28T17:33:59.135Z,0
2023-01-28T17:34:40.570Z,0
2023-01-28T17:38:15.722Z,0
2023-01-28T17:38:56.253Z,0
2023-01-28T17:39:37.687Z,0
2023-01-28T17:40:18.245Z,0
2023-01-28T17:42:32.051Z,0
2023-01-28T17:43:12.579Z,0
2023-01-28T17:43:53.096Z,0
2023-01-28T17:44:33.563Z,0
2023-01-28T17:46:52.408Z,0
2023-01-28T17:47:32.919Z,0
2023-01-28T17:48:14.008Z,0
2023-01-28T17:48:54.498Z,0
2023-01-28T17:51:34.464Z,0
2023-01-28T17:52:15.136Z,0
2023-01-28T17:52:55.668Z,0
2023-01-28T17:53:36.191Z,0
2023-01-28T17:57:39.420Z,0
2023-01-28T17:58:19.954Z,0
2023-01-28T17:59:00.478Z,0
2023-01-28T17:59:41.008Z,0
2023-01-28T18:00:21.504Z,0
2023-01-28T18:05:49.168Z,0
2023-01-28T18:06:29.732Z,0
2023-01-28T18:07:10.226Z,0
2023-01-28T18:07:51.356Z,0
2023-01-28T18:08:31.871Z,0
2023-01-28T18:09:12.390Z,0
2023-01-28T18:09:55.212Z,0
2023-01-28T18:12:31.401Z,0
2023-01-28T18:13:11.931Z,0
2023-01-28T18:13:52.474Z,0
2023-01-28T18:14:32.967Z,0
2023-01-28T18:18:36.167Z,0
2023-01-28T18:19:16.696Z,0
2023-01-28T18:19:57.210Z,0
2023-01-28T18:20:38.260Z,0
2023-01-28T18:21:18.777Z,0
2023-01-28T18:21:59.403Z,0
2023-01-28T18:22:39.953Z,0
2023-01-28T18:23:20.449Z,0
2023-01-28T18:24:01.010Z,0
2023-01-28T18:29:38.143Z,0
2023-01-28T18:30:18.633Z,0
2023-01-28T18:30:59.178Z,0
2023-01-28T18:31:39.684Z,0
2023-01-28T18:35:42.877Z,0
2023-01-28T18:36:23.395Z,0
2023-01-28T18:37:03.925Z,0
2023-01-28T18:37:44.407Z,0
2023-01-28T18:38:24.939Z,0
2023-01-28T18:39:05.493Z,0